sensor_id;sensor_type;location;lat;lon;timestamp;P1;durP1;ratioP1;P2;durP2;ratioP2
28587;SDS011;15787;49.662;10.162;2023-04-25T00:00:57;5.25;;;3.33;;
28587;SDS011;15787;49.662;10.162;2023-04-25T00:03:30;5.40;;;3.33;;
28587;SDS011;15787;49.662;10.162;2023-04-25T00:06:04;5.50;;;3.33;;
28587;SDS011;15787;49.662;10.162;2023-04-25T00:08:38;6.63;;;3.20;;
28587;SDS011;15787;49.662;10.162;2023-04-25T00:11:12;4.78;;;3.10;;
28587;SDS011;15787;49.662;10.162;2023-04-25T00:13:45;5.43;;;3.25;;
28587;SDS011;15787;49.662;10.162;2023-04-25T00:16:21;5.18;;;3.72;;
28587;SDS011;15787;49.662;10.162;2023-04-25T00:18:55;4.65;;;3.22;;
28587;SDS011;15787;49.662;10.162;2023-04-25T00:21:28;7.05;;;3.53;;
28587;SDS011;15787;49.662;10.162;2023-04-25T00:24:03;5.55;;;3.33;;
28587;SDS011;15787;49.662;10.162;2023-04-25T00:26:37;5.85;;;3.60;;
28587;SDS011;15787;49.662;10.162;2023-04-25T00:29:10;6.80;;;3.65;;
28587;SDS011;15787;49.662;10.162;2023-04-25T00:31:43;5.65;;;3.55;;
28587;SDS011;15787;49.662;10.162;2023-04-25T00:34:19;5.10;;;3.30;;
28587;SDS011;15787;49.662;10.162;2023-04-25T00:36:52;6.15;;;3.55;;
28587;SDS011;15787;49.662;10.162;2023-04-25T00:39:25;6.25;;;3.75;;
28587;SDS011;15787;49.662;10.162;2023-04-25T00:41:59;5.28;;;3.35;;
28587;SDS011;15787;49.662;10.162;2023-04-25T00:44:33;6.40;;;3.80;;
28587;SDS011;15787;49.662;10.162;2023-04-25T00:47:08;7.40;;;4.20;;
28587;SDS011;15787;49.662;10.162;2023-04-25T00:49:41;5.95;;;3.85;;
28587;SDS011;15787;49.662;10.162;2023-04-25T00:52:13;6.28;;;4.15;;
28587;SDS011;15787;49.662;10.162;2023-04-25T00:54:46;6.88;;;4.20;;
28587;SDS011;15787;49.662;10.162;2023-04-25T00:57:21;6.07;;;3.88;;
28587;SDS011;15787;49.662;10.162;2023-04-25T00:59:54;5.13;;;4.22;;
28587;SDS011;15787;49.662;10.162;2023-04-25T01:02:27;6.05;;;4.20;;
28587;SDS011;15787;49.662;10.162;2023-04-25T01:05:01;7.13;;;4.50;;
28587;SDS011;15787;49.662;10.162;2023-04-25T01:07:35;7.57;;;4.90;;
28587;SDS011;15787;49.662;10.162;2023-04-25T01:10:08;6.07;;;4.15;;
28587;SDS011;15787;49.662;10.162;2023-04-25T01:12:42;6.57;;;4.35;;
28587;SDS011;15787;49.662;10.162;2023-04-25T01:15:15;6.28;;;4.57;;
28587;SDS011;15787;49.662;10.162;2023-04-25T01:17:48;6.57;;;4.53;;
28587;SDS011;15787;49.662;10.162;2023-04-25T01:20:22;9.80;;;4.15;;
28587;SDS011;15787;49.662;10.162;2023-04-25T01:22:57;6.90;;;4.38;;
28587;SDS011;15787;49.662;10.162;2023-04-25T01:25:30;6.85;;;3.85;;
28587;SDS011;15787;49.662;10.162;2023-04-25T01:28:04;10.23;;;3.55;;
28587;SDS011;15787;49.662;10.162;2023-04-25T01:30:37;6.70;;;4.22;;
28587;SDS011;15787;49.662;10.162;2023-04-25T01:33:11;5.30;;;3.58;;
28587;SDS011;15787;49.662;10.162;2023-04-25T01:35:46;6.20;;;3.90;;
28587;SDS011;15787;49.662;10.162;2023-04-25T01:38:21;5.32;;;3.63;;
28587;SDS011;15787;49.662;10.162;2023-04-25T01:40:53;6.22;;;3.80;;
28587;SDS011;15787;49.662;10.162;2023-04-25T01:43:27;5.47;;;3.40;;
28587;SDS011;15787;49.662;10.162;2023-04-25T01:46:00;5.97;;;4.20;;
28587;SDS011;15787;49.662;10.162;2023-04-25T01:48:33;5.75;;;3.85;;
28587;SDS011;15787;49.662;10.162;2023-04-25T01:51:06;5.60;;;3.63;;
28587;SDS011;15787;49.662;10.162;2023-04-25T01:53:40;6.38;;;4.05;;
28587;SDS011;15787;49.662;10.162;2023-04-25T01:56:15;9.43;;;5.00;;
28587;SDS011;15787;49.662;10.162;2023-04-25T01:58:48;7.30;;;4.65;;
28587;SDS011;15787;49.662;10.162;2023-04-25T02:01:24;6.85;;;4.50;;
28587;SDS011;15787;49.662;10.162;2023-04-25T02:04:15;6.50;;;4.07;;
28587;SDS011;15787;49.662;10.162;2023-04-25T02:06:48;6.55;;;4.45;;
28587;SDS011;15787;49.662;10.162;2023-04-25T02:09:23;5.60;;;4.05;;
28587;SDS011;15787;49.662;10.162;2023-04-25T02:11:59;6.43;;;4.22;;
28587;SDS011;15787;49.662;10.162;2023-04-25T02:14:57;6.90;;;4.95;;
28587;SDS011;15787;49.662;10.162;2023-04-25T02:17:39;7.72;;;4.97;;
28587;SDS011;15787;49.662;10.162;2023-04-25T02:20:12;7.90;;;4.60;;
28587;SDS011;15787;49.662;10.162;2023-04-25T02:22:45;7.95;;;5.03;;
28587;SDS011;15787;49.662;10.162;2023-04-25T02:25:20;7.20;;;4.75;;
28587;SDS011;15787;49.662;10.162;2023-04-25T02:27:53;8.48;;;4.88;;
28587;SDS011;15787;49.662;10.162;2023-04-25T02:30:27;9.50;;;5.03;;
28587;SDS011;15787;49.662;10.162;2023-04-25T02:33:00;6.63;;;4.63;;
28587;SDS011;15787;49.662;10.162;2023-04-25T02:35:34;8.18;;;5.18;;
28587;SDS011;15787;49.662;10.162;2023-04-25T02:38:07;10.45;;;5.35;;
28587;SDS011;15787;49.662;10.162;2023-04-25T02:40:42;7.75;;;5.00;;
28587;SDS011;15787;49.662;10.162;2023-04-25T02:43:16;9.48;;;4.78;;
28587;SDS011;15787;49.662;10.162;2023-04-25T02:45:49;12.80;;;5.38;;
28587;SDS011;15787;49.662;10.162;2023-04-25T02:48:22;8.07;;;5.60;;
28587;SDS011;15787;49.662;10.162;2023-04-25T02:50:55;8.55;;;5.00;;
28587;SDS011;15787;49.662;10.162;2023-04-25T02:53:29;8.77;;;4.88;;
28587;SDS011;15787;49.662;10.162;2023-04-25T02:56:04;8.05;;;5.00;;
28587;SDS011;15787;49.662;10.162;2023-04-25T02:58:38;7.82;;;5.65;;
28587;SDS011;15787;49.662;10.162;2023-04-25T03:01:11;8.27;;;5.43;;
28587;SDS011;15787;49.662;10.162;2023-04-25T03:03:45;6.95;;;4.85;;
28587;SDS011;15787;49.662;10.162;2023-04-25T03:06:18;6.85;;;4.60;;
28587;SDS011;15787;49.662;10.162;2023-04-25T03:08:52;10.20;;;4.90;;
28587;SDS011;15787;49.662;10.162;2023-04-25T03:11:26;7.05;;;4.60;;
28587;SDS011;15787;49.662;10.162;2023-04-25T03:14:01;11.70;;;5.38;;
28587;SDS011;15787;49.662;10.162;2023-04-25T03:16:34;7.90;;;4.63;;
28587;SDS011;15787;49.662;10.162;2023-04-25T03:19:08;6.35;;;4.43;;
28587;SDS011;15787;49.662;10.162;2023-04-25T03:21:41;6.47;;;4.28;;
28587;SDS011;15787;49.662;10.162;2023-04-25T03:24:14;7.47;;;4.07;;
28587;SDS011;15787;49.662;10.162;2023-04-25T03:26:49;5.32;;;3.78;;
28587;SDS011;15787;49.662;10.162;2023-04-25T03:29:22;6.32;;;3.80;;
28587;SDS011;15787;49.662;10.162;2023-04-25T03:31:59;4.97;;;3.80;;
28587;SDS011;15787;49.662;10.162;2023-04-25T03:34:32;5.35;;;3.55;;
28587;SDS011;15787;49.662;10.162;2023-04-25T03:37:05;6.60;;;3.83;;
28587;SDS011;15787;49.662;10.162;2023-04-25T03:39:41;8.00;;;4.38;;
28587;SDS011;15787;49.662;10.162;2023-04-25T03:42:16;6.43;;;3.60;;
28587;SDS011;15787;49.662;10.162;2023-04-25T03:44:51;7.57;;;4.85;;
28587;SDS011;15787;49.662;10.162;2023-04-25T03:47:24;5.60;;;3.67;;
28587;SDS011;15787;49.662;10.162;2023-04-25T03:49:58;7.60;;;4.45;;
28587;SDS011;15787;49.662;10.162;2023-04-25T03:52:33;4.05;;;3.25;;
28587;SDS011;15787;49.662;10.162;2023-04-25T03:55:07;5.40;;;3.67;;
28587;SDS011;15787;49.662;10.162;2023-04-25T03:57:43;5.53;;;3.50;;
28587;SDS011;15787;49.662;10.162;2023-04-25T04:00:16;6.18;;;3.50;;
28587;SDS011;15787;49.662;10.162;2023-04-25T04:02:54;5.22;;;3.30;;
28587;SDS011;15787;49.662;10.162;2023-04-25T04:05:28;4.07;;;2.90;;
28587;SDS011;15787;49.662;10.162;2023-04-25T04:08:02;4.47;;;2.63;;
28587;SDS011;15787;49.662;10.162;2023-04-25T04:10:35;4.85;;;2.88;;
28587;SDS011;15787;49.662;10.162;2023-04-25T04:13:10;5.75;;;2.90;;
28587;SDS011;15787;49.662;10.162;2023-04-25T04:15:43;4.40;;;3.22;;
28587;SDS011;15787;49.662;10.162;2023-04-25T04:18:17;4.45;;;2.88;;
28587;SDS011;15787;49.662;10.162;2023-04-25T04:20:50;5.07;;;2.83;;
28587;SDS011;15787;49.662;10.162;2023-04-25T04:23:23;4.72;;;3.20;;
28587;SDS011;15787;49.662;10.162;2023-04-25T04:25:59;5.18;;;3.38;;
28587;SDS011;15787;49.662;10.162;2023-04-25T04:28:52;4.68;;;3.28;;
28587;SDS011;15787;49.662;10.162;2023-04-25T04:31:44;7.35;;;3.70;;
28587;SDS011;15787;49.662;10.162;2023-04-25T04:34:17;7.95;;;3.85;;
28587;SDS011;15787;49.662;10.162;2023-04-25T04:36:50;5.30;;;3.80;;
28587;SDS011;15787;49.662;10.162;2023-04-25T04:39:24;6.03;;;3.30;;
28587;SDS011;15787;49.662;10.162;2023-04-25T04:42:05;4.50;;;2.90;;
28587;SDS011;15787;49.662;10.162;2023-04-25T04:44:49;4.97;;;3.20;;
28587;SDS011;15787;49.662;10.162;2023-04-25T04:47:42;6.57;;;3.78;;
28587;SDS011;15787;49.662;10.162;2023-04-25T04:50:20;6.75;;;3.60;;
28587;SDS011;15787;49.662;10.162;2023-04-25T04:53:28;6.05;;;3.90;;
28587;SDS011;15787;49.662;10.162;2023-04-25T04:56:20;9.77;;;4.03;;
28587;SDS011;15787;49.662;10.162;2023-04-25T04:59:15;9.48;;;4.20;;
28587;SDS011;15787;49.662;10.162;2023-04-25T05:02:04;6.32;;;3.97;;
28587;SDS011;15787;49.662;10.162;2023-04-25T05:04:56;5.68;;;3.25;;
28587;SDS011;15787;49.662;10.162;2023-04-25T05:08:01;7.03;;;3.60;;
28587;SDS011;15787;49.662;10.162;2023-04-25T05:10:53;6.55;;;3.60;;
28587;SDS011;15787;49.662;10.162;2023-04-25T05:13:37;1.75;;;0.75;;
28587;SDS011;15787;49.662;10.162;2023-04-25T05:20:51;0.00;;;0.00;;
28587;SDS011;15787;49.662;10.162;2023-04-25T05:26:52;0.00;;;0.00;;
28587;SDS011;15787;49.662;10.162;2023-04-25T05:29:51;0.00;;;0.00;;
28587;SDS011;15787;49.662;10.162;2023-04-25T05:32:34;0.00;;;0.00;;
28587;SDS011;15787;49.662;10.162;2023-04-25T05:35:08;0.00;;;0.00;;
28587;SDS011;15787;49.662;10.162;2023-04-25T05:37:48;0.00;;;0.00;;
28587;SDS011;15787;49.662;10.162;2023-04-25T05:40:24;0.00;;;0.00;;
28587;SDS011;15787;49.662;10.162;2023-04-25T05:43:23;0.00;;;0.00;;
28587;SDS011;15787;49.662;10.162;2023-04-25T05:46:14;0.00;;;0.00;;
28587;SDS011;15787;49.662;10.162;2023-04-25T05:48:56;0.00;;;0.00;;
28587;SDS011;15787;49.662;10.162;2023-04-25T05:51:47;0.00;;;0.00;;
28587;SDS011;15787;49.662;10.162;2023-04-25T05:54:40;0.00;;;0.00;;
28587;SDS011;15787;49.662;10.162;2023-04-25T05:57:18;0.00;;;0.00;;
28587;SDS011;15787;49.662;10.162;2023-04-25T05:59:52;0.00;;;0.00;;
28587;SDS011;15787;49.662;10.162;2023-04-25T06:02:30;0.00;;;0.00;;
28587;SDS011;15787;49.662;10.162;2023-04-25T06:05:03;0.00;;;0.00;;
28587;SDS011;15787;49.662;10.162;2023-04-25T06:07:37;0.00;;;0.00;;
28587;SDS011;15787;49.662;10.162;2023-04-25T06:10:12;0.22;;;0.22;;
28587;SDS011;15787;49.662;10.162;2023-04-25T06:12:46;0.00;;;0.00;;
28587;SDS011;15787;49.662;10.162;2023-04-25T06:15:20;0.00;;;0.00;;
28587;SDS011;15787;49.662;10.162;2023-04-25T06:17:59;0.00;;;0.00;;
28587;SDS011;15787;49.662;10.162;2023-04-25T06:20:32;0.00;;;0.00;;
28587;SDS011;15787;49.662;10.162;2023-04-25T06:23:05;0.00;;;0.00;;
28587;SDS011;15787;49.662;10.162;2023-04-25T06:25:51;0.00;;;0.00;;
28587;SDS011;15787;49.662;10.162;2023-04-25T06:28:25;0.00;;;0.00;;
28587;SDS011;15787;49.662;10.162;2023-04-25T06:30:58;0.00;;;0.00;;
28587;SDS011;15787;49.662;10.162;2023-04-25T06:33:31;0.57;;;0.57;;
28587;SDS011;15787;49.662;10.162;2023-04-25T06:36:04;0.00;;;0.00;;
28587;SDS011;15787;49.662;10.162;2023-04-25T06:38:38;0.00;;;0.00;;
28587;SDS011;15787;49.662;10.162;2023-04-25T06:41:13;0.00;;;0.00;;
28587;SDS011;15787;49.662;10.162;2023-04-25T06:43:46;0.00;;;0.00;;
28587;SDS011;15787;49.662;10.162;2023-04-25T06:46:32;0.00;;;0.00;;
28587;SDS011;15787;49.662;10.162;2023-04-25T06:49:05;0.00;;;0.00;;
28587;SDS011;15787;49.662;10.162;2023-04-25T06:51:38;0.00;;;0.00;;
28587;SDS011;15787;49.662;10.162;2023-04-25T06:54:12;0.00;;;0.00;;
28587;SDS011;15787;49.662;10.162;2023-04-25T06:56:56;0.00;;;0.00;;
28587;SDS011;15787;49.662;10.162;2023-04-25T06:59:31;0.30;;;0.30;;
28587;SDS011;15787;49.662;10.162;2023-04-25T07:02:04;0.00;;;0.00;;
28587;SDS011;15787;49.662;10.162;2023-04-25T07:04:37;0.10;;;0.10;;
28587;SDS011;15787;49.662;10.162;2023-04-25T07:07:18;0.00;;;0.00;;
28587;SDS011;15787;49.662;10.162;2023-04-25T07:12:33;0.00;;;0.00;;
28587;SDS011;15787;49.662;10.162;2023-04-25T07:15:07;0.00;;;0.00;;
28587;SDS011;15787;49.662;10.162;2023-04-25T07:17:43;0.00;;;0.00;;
28587;SDS011;15787;49.662;10.162;2023-04-25T07:20:16;0.00;;;0.00;;
28587;SDS011;15787;49.662;10.162;2023-04-25T07:22:49;0.08;;;0.08;;
28587;SDS011;15787;49.662;10.162;2023-04-25T07:25:25;0.00;;;0.00;;
28587;SDS011;15787;49.662;10.162;2023-04-25T07:28:00;0.00;;;0.00;;
28587;SDS011;15787;49.662;10.162;2023-04-25T07:30:34;0.00;;;0.00;;
28587;SDS011;15787;49.662;10.162;2023-04-25T07:33:08;0.00;;;0.00;;
28587;SDS011;15787;49.662;10.162;2023-04-25T07:35:41;0.00;;;0.00;;
28587;SDS011;15787;49.662;10.162;2023-04-25T07:38:15;0.00;;;0.00;;
28587;SDS011;15787;49.662;10.162;2023-04-25T07:40:48;0.00;;;0.00;;
28587;SDS011;15787;49.662;10.162;2023-04-25T07:43:22;0.00;;;0.00;;
28587;SDS011;15787;49.662;10.162;2023-04-25T07:46:00;0.00;;;0.00;;
28587;SDS011;15787;49.662;10.162;2023-04-25T07:48:36;0.00;;;0.00;;
28587;SDS011;15787;49.662;10.162;2023-04-25T07:51:09;0.00;;;0.00;;
28587;SDS011;15787;49.662;10.162;2023-04-25T07:53:43;0.30;;;0.30;;
28587;SDS011;15787;49.662;10.162;2023-04-25T07:56:19;0.00;;;0.00;;
28587;SDS011;15787;49.662;10.162;2023-04-25T07:58:54;0.47;;;0.47;;
28587;SDS011;15787;49.662;10.162;2023-04-25T08:01:28;0.00;;;0.00;;
28587;SDS011;15787;49.662;10.162;2023-04-25T08:04:04;0.00;;;0.00;;
28587;SDS011;15787;49.662;10.162;2023-04-25T08:07:04;0.00;;;0.00;;
28587;SDS011;15787;49.662;10.162;2023-04-25T08:09:45;0.00;;;0.00;;
28587;SDS011;15787;49.662;10.162;2023-04-25T08:12:26;0.00;;;0.00;;
28587;SDS011;15787;49.662;10.162;2023-04-25T08:15:01;0.00;;;0.00;;
28587;SDS011;15787;49.662;10.162;2023-04-25T08:17:38;0.00;;;0.00;;
28587;SDS011;15787;49.662;10.162;2023-04-25T08:20:12;0.00;;;0.00;;
28587;SDS011;15787;49.662;10.162;2023-04-25T08:22:45;0.00;;;0.00;;
28587;SDS011;15787;49.662;10.162;2023-04-25T08:25:38;0.00;;;0.00;;
28587;SDS011;15787;49.662;10.162;2023-04-25T08:28:13;0.35;;;0.35;;
28587;SDS011;15787;49.662;10.162;2023-04-25T08:30:49;0.00;;;0.00;;
28587;SDS011;15787;49.662;10.162;2023-04-25T08:33:36;0.00;;;0.00;;
28587;SDS011;15787;49.662;10.162;2023-04-25T08:36:22;0.20;;;0.20;;
28587;SDS011;15787;49.662;10.162;2023-04-25T08:39:21;0.00;;;0.00;;
28587;SDS011;15787;49.662;10.162;2023-04-25T08:42:12;0.70;;;0.70;;
28587;SDS011;15787;49.662;10.162;2023-04-25T08:44:47;0.00;;;0.00;;
28587;SDS011;15787;49.662;10.162;2023-04-25T08:47:23;0.10;;;0.10;;
28587;SDS011;15787;49.662;10.162;2023-04-25T08:50:02;0.00;;;0.00;;
28587;SDS011;15787;49.662;10.162;2023-04-25T08:52:37;0.00;;;0.00;;
28587;SDS011;15787;49.662;10.162;2023-04-25T08:55:16;0.00;;;0.00;;
28587;SDS011;15787;49.662;10.162;2023-04-25T08:57:49;0.00;;;0.00;;
28587;SDS011;15787;49.662;10.162;2023-04-25T09:00:24;0.00;;;0.00;;
28587;SDS011;15787;49.662;10.162;2023-04-25T09:05:36;0.00;;;0.00;;
28587;SDS011;15787;49.662;10.162;2023-04-25T09:08:10;0.00;;;0.00;;
28587;SDS011;15787;49.662;10.162;2023-04-25T09:10:43;0.00;;;0.00;;
28587;SDS011;15787;49.662;10.162;2023-04-25T09:13:24;0.00;;;0.00;;
28587;SDS011;15787;49.662;10.162;2023-04-25T09:16:21;6.63;;;2.50;;
28587;SDS011;15787;49.662;10.162;2023-04-25T09:19:22;6.30;;;2.38;;
28587;SDS011;15787;49.662;10.162;2023-04-25T09:22:15;4.25;;;1.80;;
28587;SDS011;15787;49.662;10.162;2023-04-25T09:24:52;2.40;;;1.65;;
28587;SDS011;15787;49.662;10.162;2023-04-25T09:27:29;4.68;;;1.95;;
28587;SDS011;15787;49.662;10.162;2023-04-25T09:30:11;4.07;;;1.98;;
28587;SDS011;15787;49.662;10.162;2023-04-25T09:33:10;4.80;;;1.65;;
28587;SDS011;15787;49.662;10.162;2023-04-25T09:35:51;7.28;;;2.45;;
28587;SDS011;15787;49.662;10.162;2023-04-25T09:38:39;4.80;;;1.90;;
28587;SDS011;15787;49.662;10.162;2023-04-25T09:41:22;5.45;;;2.17;;
28587;SDS011;15787;49.662;10.162;2023-04-25T09:43:58;5.28;;;2.25;;
28587;SDS011;15787;49.662;10.162;2023-04-25T09:49:20;6.15;;;1.95;;
28587;SDS011;15787;49.662;10.162;2023-04-25T09:52:16;4.80;;;2.63;;
28587;SDS011;15787;49.662;10.162;2023-04-25T09:55:13;3.42;;;1.63;;
28587;SDS011;15787;49.662;10.162;2023-04-25T09:57:48;4.78;;;2.08;;
28587;SDS011;15787;49.662;10.162;2023-04-25T10:00:25;3.75;;;1.77;;
28587;SDS011;15787;49.662;10.162;2023-04-25T10:02:58;5.30;;;1.60;;
28587;SDS011;15787;49.662;10.162;2023-04-25T10:06:01;4.10;;;2.05;;
28587;SDS011;15787;49.662;10.162;2023-04-25T10:08:37;4.47;;;1.88;;
28587;SDS011;15787;49.662;10.162;2023-04-25T10:11:10;3.55;;;1.70;;
28587;SDS011;15787;49.662;10.162;2023-04-25T10:13:45;3.15;;;1.88;;
28587;SDS011;15787;49.662;10.162;2023-04-25T10:16:19;3.83;;;1.90;;
28587;SDS011;15787;49.662;10.162;2023-04-25T10:18:53;2.88;;;2.05;;
28587;SDS011;15787;49.662;10.162;2023-04-25T10:21:27;5.55;;;2.47;;
28587;SDS011;15787;49.662;10.162;2023-04-25T10:24:09;5.05;;;2.17;;
28587;SDS011;15787;49.662;10.162;2023-04-25T10:26:42;4.85;;;1.90;;
28587;SDS011;15787;49.662;10.162;2023-04-25T10:29:21;5.82;;;2.05;;
28587;SDS011;15787;49.662;10.162;2023-04-25T10:31:55;2.72;;;1.70;;
28587;SDS011;15787;49.662;10.162;2023-04-25T10:34:37;4.28;;;2.20;;
28587;SDS011;15787;49.662;10.162;2023-04-25T10:37:12;3.15;;;2.03;;
28587;SDS011;15787;49.662;10.162;2023-04-25T10:39:46;3.55;;;2.28;;
28587;SDS011;15787;49.662;10.162;2023-04-25T10:42:19;4.43;;;1.80;;
28587;SDS011;15787;49.662;10.162;2023-04-25T10:45:00;3.13;;;1.98;;
28587;SDS011;15787;49.662;10.162;2023-04-25T10:47:35;4.45;;;2.10;;
28587;SDS011;15787;49.662;10.162;2023-04-25T10:50:08;4.32;;;2.17;;
28587;SDS011;15787;49.662;10.162;2023-04-25T10:52:42;3.83;;;2.10;;
28587;SDS011;15787;49.662;10.162;2023-04-25T10:55:16;4.32;;;2.28;;
28587;SDS011;15787;49.662;10.162;2023-04-25T10:57:49;6.30;;;3.35;;
28587;SDS011;15787;49.662;10.162;2023-04-25T11:00:23;3.10;;;2.08;;
28587;SDS011;15787;49.662;10.162;2023-04-25T11:03:15;5.30;;;2.28;;
28587;SDS011;15787;49.662;10.162;2023-04-25T11:05:49;5.30;;;2.10;;
28587;SDS011;15787;49.662;10.162;2023-04-25T11:08:35;3.83;;;2.10;;
28587;SDS011;15787;49.662;10.162;2023-04-25T11:13:53;4.55;;;1.90;;
28587;SDS011;15787;49.662;10.162;2023-04-25T11:16:26;3.05;;;1.60;;
28587;SDS011;15787;49.662;10.162;2023-04-25T11:18:59;4.93;;;1.90;;
28587;SDS011;15787;49.662;10.162;2023-04-25T11:21:32;3.20;;;1.80;;
28587;SDS011;15787;49.662;10.162;2023-04-25T11:24:05;3.65;;;1.75;;
28587;SDS011;15787;49.662;10.162;2023-04-25T11:26:41;4.38;;;1.52;;
28587;SDS011;15787;49.662;10.162;2023-04-25T11:29:14;3.42;;;1.58;;
28587;SDS011;15787;49.662;10.162;2023-04-25T11:31:46;4.00;;;1.70;;
28587;SDS011;15787;49.662;10.162;2023-04-25T11:34:19;4.30;;;1.98;;
28587;SDS011;15787;49.662;10.162;2023-04-25T11:36:52;3.17;;;1.70;;
28587;SDS011;15787;49.662;10.162;2023-04-25T11:39:26;2.17;;;1.73;;
28587;SDS011;15787;49.662;10.162;2023-04-25T11:42:00;4.50;;;1.60;;
28587;SDS011;15787;49.662;10.162;2023-04-25T11:44:37;4.18;;;1.63;;
28587;SDS011;15787;49.662;10.162;2023-04-25T11:47:11;2.85;;;1.70;;
28587;SDS011;15787;49.662;10.162;2023-04-25T11:49:44;3.70;;;1.80;;
28587;SDS011;15787;49.662;10.162;2023-04-25T11:52:16;2.90;;;1.67;;
28587;SDS011;15787;49.662;10.162;2023-04-25T11:54:49;3.85;;;1.85;;
28587;SDS011;15787;49.662;10.162;2023-04-25T11:57:32;6.22;;;2.00;;
28587;SDS011;15787;49.662;10.162;2023-04-25T12:00:06;2.80;;;1.83;;
28587;SDS011;15787;49.662;10.162;2023-04-25T12:02:59;2.65;;;1.40;;
28587;SDS011;15787;49.662;10.162;2023-04-25T12:05:34;2.92;;;1.90;;
28587;SDS011;15787;49.662;10.162;2023-04-25T12:08:09;3.40;;;1.80;;
28587;SDS011;15787;49.662;10.162;2023-04-25T12:10:45;5.43;;;3.45;;
28587;SDS011;15787;49.662;10.162;2023-04-25T12:13:23;3.63;;;1.80;;
28587;SDS011;15787;49.662;10.162;2023-04-25T12:15:57;5.00;;;2.72;;
28587;SDS011;15787;49.662;10.162;2023-04-25T12:18:30;3.28;;;1.95;;
28587;SDS011;15787;49.662;10.162;2023-04-25T12:21:04;6.00;;;2.58;;
28587;SDS011;15787;49.662;10.162;2023-04-25T12:23:39;4.90;;;2.03;;
28587;SDS011;15787;49.662;10.162;2023-04-25T12:26:13;4.93;;;1.60;;
28587;SDS011;15787;49.662;10.162;2023-04-25T12:28:48;5.10;;;1.50;;
28587;SDS011;15787;49.662;10.162;2023-04-25T12:31:21;4.47;;;2.00;;
28587;SDS011;15787;49.662;10.162;2023-04-25T12:33:54;3.72;;;1.67;;
28587;SDS011;15787;49.662;10.162;2023-04-25T12:36:29;4.32;;;1.92;;
28587;SDS011;15787;49.662;10.162;2023-04-25T12:39:02;6.25;;;1.90;;
28587;SDS011;15787;49.662;10.162;2023-04-25T12:41:35;4.25;;;1.90;;
28587;SDS011;15787;49.662;10.162;2023-04-25T12:44:10;4.53;;;1.80;;
28587;SDS011;15787;49.662;10.162;2023-04-25T12:46:43;6.22;;;1.77;;
28587;SDS011;15787;49.662;10.162;2023-04-25T12:49:16;4.15;;;1.98;;
28587;SDS011;15787;49.662;10.162;2023-04-25T12:52:09;3.90;;;2.00;;
28587;SDS011;15787;49.662;10.162;2023-04-25T12:54:42;6.90;;;2.00;;
28587;SDS011;15787;49.662;10.162;2023-04-25T12:57:15;5.05;;;1.88;;
28587;SDS011;15787;49.662;10.162;2023-04-25T12:59:49;3.70;;;1.80;;
28587;SDS011;15787;49.662;10.162;2023-04-25T13:02:22;3.75;;;1.77;;
28587;SDS011;15787;49.662;10.162;2023-04-25T13:04:55;2.33;;;1.58;;
28587;SDS011;15787;49.662;10.162;2023-04-25T13:07:28;6.45;;;3.00;;
28587;SDS011;15787;49.662;10.162;2023-04-25T13:10:01;5.32;;;2.00;;
28587;SDS011;15787;49.662;10.162;2023-04-25T13:12:34;4.53;;;2.35;;
28587;SDS011;15787;49.662;10.162;2023-04-25T13:15:10;6.10;;;2.33;;
28587;SDS011;15787;49.662;10.162;2023-04-25T13:17:45;4.90;;;2.42;;
28587;SDS011;15787;49.662;10.162;2023-04-25T13:20:19;4.88;;;2.22;;
28587;SDS011;15787;49.662;10.162;2023-04-25T13:22:53;5.82;;;2.33;;
28587;SDS011;15787;49.662;10.162;2023-04-25T13:25:27;4.85;;;2.25;;
28587;SDS011;15787;49.662;10.162;2023-04-25T13:28:00;5.30;;;2.60;;
28587;SDS011;15787;49.662;10.162;2023-04-25T13:30:34;5.03;;;2.05;;
28587;SDS011;15787;49.662;10.162;2023-04-25T13:33:07;4.72;;;2.65;;
28587;SDS011;15787;49.662;10.162;2023-04-25T13:35:42;4.72;;;2.47;;
28587;SDS011;15787;49.662;10.162;2023-04-25T13:38:18;6.28;;;2.67;;
28587;SDS011;15787;49.662;10.162;2023-04-25T13:40:51;3.97;;;2.75;;
28587;SDS011;15787;49.662;10.162;2023-04-25T13:43:24;6.18;;;2.75;;
28587;SDS011;15787;49.662;10.162;2023-04-25T13:45:59;6.93;;;3.00;;
28587;SDS011;15787;49.662;10.162;2023-04-25T13:48:34;6.13;;;2.53;;
28587;SDS011;15787;49.662;10.162;2023-04-25T13:51:07;10.98;;;3.60;;
28587;SDS011;15787;49.662;10.162;2023-04-25T13:53:40;7.32;;;2.63;;
28587;SDS011;15787;49.662;10.162;2023-04-25T13:56:13;5.28;;;2.47;;
28587;SDS011;15787;49.662;10.162;2023-04-25T13:58:46;5.25;;;3.22;;
28587;SDS011;15787;49.662;10.162;2023-04-25T14:01:21;5.00;;;2.67;;
28587;SDS011;15787;49.662;10.162;2023-04-25T14:03:53;5.28;;;2.30;;
28587;SDS011;15787;49.662;10.162;2023-04-25T14:06:26;8.65;;;2.70;;
28587;SDS011;15787;49.662;10.162;2023-04-25T14:08:59;5.10;;;3.03;;
28587;SDS011;15787;49.662;10.162;2023-04-25T14:11:32;6.70;;;2.47;;
28587;SDS011;15787;49.662;10.162;2023-04-25T14:14:05;7.07;;;3.17;;
28587;SDS011;15787;49.662;10.162;2023-04-25T14:16:39;4.57;;;2.88;;
28587;SDS011;15787;49.662;10.162;2023-04-25T14:19:12;6.53;;;3.00;;
28587;SDS011;15787;49.662;10.162;2023-04-25T14:21:45;5.40;;;3.15;;
28587;SDS011;15787;49.662;10.162;2023-04-25T14:24:18;7.38;;;3.50;;
28587;SDS011;15787;49.662;10.162;2023-04-25T14:26:51;6.35;;;3.22;;
28587;SDS011;15787;49.662;10.162;2023-04-25T14:29:24;5.45;;;3.22;;
28587;SDS011;15787;49.662;10.162;2023-04-25T14:31:58;8.02;;;3.60;;
28587;SDS011;15787;49.662;10.162;2023-04-25T14:34:31;7.60;;;3.60;;
28587;SDS011;15787;49.662;10.162;2023-04-25T14:37:05;7.90;;;3.70;;
28587;SDS011;15787;49.662;10.162;2023-04-25T14:39:38;8.93;;;3.53;;
28587;SDS011;15787;49.662;10.162;2023-04-25T14:42:11;6.72;;;3.50;;
28587;SDS011;15787;49.662;10.162;2023-04-25T14:44:44;3.83;;;2.63;;
28587;SDS011;15787;49.662;10.162;2023-04-25T14:47:19;5.10;;;2.72;;
28587;SDS011;15787;49.662;10.162;2023-04-25T14:49:52;8.40;;;3.75;;
28587;SDS011;15787;49.662;10.162;2023-04-25T14:52:25;7.03;;;3.08;;
28587;SDS011;15787;49.662;10.162;2023-04-25T14:54:58;7.75;;;3.22;;
28587;SDS011;15787;49.662;10.162;2023-04-25T14:57:36;5.65;;;2.67;;
28587;SDS011;15787;49.662;10.162;2023-04-25T15:00:10;7.60;;;2.97;;
28587;SDS011;15787;49.662;10.162;2023-04-25T15:02:48;6.45;;;2.58;;
28587;SDS011;15787;49.662;10.162;2023-04-25T15:05:22;6.88;;;2.53;;
28587;SDS011;15787;49.662;10.162;2023-04-25T15:07:55;6.13;;;2.97;;
28587;SDS011;15787;49.662;10.162;2023-04-25T15:10:28;7.93;;;2.90;;
28587;SDS011;15787;49.662;10.162;2023-04-25T15:13:01;4.00;;;2.15;;
28587;SDS011;15787;49.662;10.162;2023-04-25T15:15:34;9.52;;;2.72;;
28587;SDS011;15787;49.662;10.162;2023-04-25T15:18:08;7.38;;;2.42;;
28587;SDS011;15787;49.662;10.162;2023-04-25T15:20:41;7.03;;;2.42;;
28587;SDS011;15787;49.662;10.162;2023-04-25T15:23:14;3.67;;;2.40;;
28587;SDS011;15787;49.662;10.162;2023-04-25T15:25:49;3.47;;;2.10;;
28587;SDS011;15787;49.662;10.162;2023-04-25T15:28:22;2.92;;;1.98;;
28587;SDS011;15787;49.662;10.162;2023-04-25T15:30:55;6.47;;;2.28;;
28587;SDS011;15787;49.662;10.162;2023-04-25T15:33:30;5.07;;;1.70;;
28587;SDS011;15787;49.662;10.162;2023-04-25T15:36:03;7.63;;;2.08;;
28587;SDS011;15787;49.662;10.162;2023-04-25T15:38:37;6.00;;;1.83;;
28587;SDS011;15787;49.662;10.162;2023-04-25T15:41:10;6.28;;;2.20;;
28587;SDS011;15787;49.662;10.162;2023-04-25T15:43:46;3.80;;;1.95;;
28587;SDS011;15787;49.662;10.162;2023-04-25T15:46:20;4.50;;;2.40;;